sensor_id;sensor_type;location;lat;lon;timestamp;temperature;humidity
38456;DHT22;24237;50.106;20.014;2023-03-01T00:01:11;1.20;99.90
38456;DHT22;24237;50.106;20.014;2023-03-01T00:03:37;1.20;99.90
38456;DHT22;24237;50.106;20.014;2023-03-01T00:06:04;1.10;99.90
38456;DHT22;24237;50.106;20.014;2023-03-01T00:08:30;1.10;99.90
38456;DHT22;24237;50.106;20.014;2023-03-01T00:11:05;1.10;99.90
38456;DHT22;24237;50.106;20.014;2023-03-01T00:13:31;1.10;99.90
38456;DHT22;24237;50.106;20.014;2023-03-01T00:15:56;1.10;99.90
38456;DHT22;24237;50.106;20.014;2023-03-01T00:18:22;1.10;99.90
38456;DHT22;24237;50.106;20.014;2023-03-01T00:20:56;1.10;99.90
38456;DHT22;24237;50.106;20.014;2023-03-01T00:23:22;1.10;99.90
38456;DHT22;24237;50.106;20.014;2023-03-01T00:25:48;1.10;99.90
38456;DHT22;24237;50.106;20.014;2023-03-01T00:28:14;1.10;99.90
38456;DHT22;24237;50.106;20.014;2023-03-01T00:30:43;1.10;99.90
38456;DHT22;24237;50.106;20.014;2023-03-01T00:33:09;1.20;99.90
38456;DHT22;24237;50.106;20.014;2023-03-01T00:35:35;1.20;99.90
38456;DHT22;24237;50.106;20.014;2023-03-01T00:38:01;1.20;99.90
38456;DHT22;24237;50.106;20.014;2023-03-01T00:40:29;1.20;99.90
38456;DHT22;24237;50.106;20.014;2023-03-01T00:42:54;1.20;99.90
38456;DHT22;24237;50.106;20.014;2023-03-01T00:45:21;1.10;99.90
38456;DHT22;24237;50.106;20.014;2023-03-01T00:47:48;1.20;99.90
38456;DHT22;24237;50.106;20.014;2023-03-01T00:50:14;1.20;99.90
38456;DHT22;24237;50.106;20.014;2023-03-01T00:52:40;1.20;99.90
38456;DHT22;24237;50.106;20.014;2023-03-01T00:55:06;1.40;99.90
38456;DHT22;24237;50.106;20.014;2023-03-01T00:57:32;1.50;99.90
38456;DHT22;24237;50.106;20.014;2023-03-01T00:59:58;1.60;99.90
38456;DHT22;24237;50.106;20.014;2023-03-01T01:02:24;1.50;99.90
38456;DHT22;24237;50.106;20.014;2023-03-01T01:04:50;1.40;99.90
38456;DHT22;24237;50.106;20.014;2023-03-01T01:07:15;1.20;99.90
38456;DHT22;24237;50.106;20.014;2023-03-01T01:09:41;1.10;99.90
38456;DHT22;24237;50.106;20.014;2023-03-01T01:12:07;1.00;99.90
38456;DHT22;24237;50.106;20.014;2023-03-01T01:14:33;0.80;99.90
38456;DHT22;24237;50.106;20.014;2023-03-01T01:16:59;0.70;99.90
38456;DHT22;24237;50.106;20.014;2023-03-01T01:19:25;0.60;99.90
38456;DHT22;24237;50.106;20.014;2023-03-01T01:21:52;0.50;99.90
38456;DHT22;24237;50.106;20.014;2023-03-01T01:24:18;0.40;99.90
38456;DHT22;24237;50.106;20.014;2023-03-01T01:26:44;0.40;99.90
38456;DHT22;24237;50.106;20.014;2023-03-01T01:29:10;0.40;99.90
38456;DHT22;24237;50.106;20.014;2023-03-01T01:31:38;0.50;99.90
38456;DHT22;24237;50.106;20.014;2023-03-01T01:34:07;0.60;99.90
38456;DHT22;24237;50.106;20.014;2023-03-01T01:36:33;0.60;99.90
38456;DHT22;24237;50.106;20.014;2023-03-01T01:39:00;0.50;99.90
38456;DHT22;24237;50.106;20.014;2023-03-01T01:41:27;0.50;99.90
38456;DHT22;24237;50.106;20.014;2023-03-01T01:44:15;0.40;99.90
38456;DHT22;24237;50.106;20.014;2023-03-01T01:46:43;0.40;99.90
38456;DHT22;24237;50.106;20.014;2023-03-01T01:49:30;0.40;99.90
38456;DHT22;24237;50.106;20.014;2023-03-01T01:55:00;0.40;99.90
38456;DHT22;24237;50.106;20.014;2023-03-01T01:57:31;0.40;99.90
38456;DHT22;24237;50.106;20.014;2023-03-01T02:00:04;0.50;99.90
38456;DHT22;24237;50.106;20.014;2023-03-01T02:02:30;0.50;99.90
38456;DHT22;24237;50.106;20.014;2023-03-01T02:05:06;0.50;99.90
38456;DHT22;24237;50.106;20.014;2023-03-01T02:07:38;0.50;99.90
38456;DHT22;24237;50.106;20.014;2023-03-01T02:10:05;0.50;99.90
38456;DHT22;24237;50.106;20.014;2023-03-01T02:12:31;0.40;99.90
38456;DHT22;24237;50.106;20.014;2023-03-01T02:14:57;0.40;99.90
38456;DHT22;24237;50.106;20.014;2023-03-01T02:17:23;0.40;99.90
38456;DHT22;24237;50.106;20.014;2023-03-01T02:22:35;0.30;99.90
38456;DHT22;24237;50.106;20.014;2023-03-01T02:25:26;0.30;99.90
38456;DHT22;24237;50.106;20.014;2023-03-01T02:30:39;0.30;99.90
38456;DHT22;24237;50.106;20.014;2023-03-01T02:33:26;0.20;99.90
38456;DHT22;24237;50.106;20.014;2023-03-01T02:35:52;0.20;99.90
38456;DHT22;24237;50.106;20.014;2023-03-01T02:38:19;0.20;99.90
38456;DHT22;24237;50.106;20.014;2023-03-01T02:40:46;0.40;99.90
38456;DHT22;24237;50.106;20.014;2023-03-01T02:43:15;0.30;99.90
38456;DHT22;24237;50.106;20.014;2023-03-01T02:45:51;0.30;99.90
38456;DHT22;24237;50.106;20.014;2023-03-01T02:48:19;0.40;99.90
38456;DHT22;24237;50.106;20.014;2023-03-01T02:53:55;0.30;99.90
38456;DHT22;24237;50.106;20.014;2023-03-01T02:56:22;0.30;99.90
38456;DHT22;24237;50.106;20.014;2023-03-01T02:58:48;0.30;99.90
38456;DHT22;24237;50.106;20.014;2023-03-01T03:01:17;0.30;99.90
38456;DHT22;24237;50.106;20.014;2023-03-01T03:03:43;0.30;99.90
38456;DHT22;24237;50.106;20.014;2023-03-01T03:06:09;0.30;99.90
38456;DHT22;24237;50.106;20.014;2023-03-01T03:08:35;0.30;99.90
38456;DHT22;24237;50.106;20.014;2023-03-01T03:11:00;0.30;99.90
38456;DHT22;24237;50.106;20.014;2023-03-01T03:13:26;0.20;99.90
38456;DHT22;24237;50.106;20.014;2023-03-01T03:15:54;0.30;99.90
38456;DHT22;24237;50.106;20.014;2023-03-01T03:18:21;0.30;99.90
38456;DHT22;24237;50.106;20.014;2023-03-01T03:20:48;0.20;99.90
38456;DHT22;24237;50.106;20.014;2023-03-01T03:23:18;0.30;99.90
38456;DHT22;24237;50.106;20.014;2023-03-01T03:25:44;0.20;99.90
38456;DHT22;24237;50.106;20.014;2023-03-01T03:28:10;0.20;99.90
38456;DHT22;24237;50.106;20.014;2023-03-01T03:30:38;0.20;99.90
38456;DHT22;24237;50.106;20.014;2023-03-01T03:33:06;0.10;99.90
38456;DHT22;24237;50.106;20.014;2023-03-01T03:35:43;0.10;99.90
38456;DHT22;24237;50.106;20.014;2023-03-01T03:38:11;0.10;99.90
38456;DHT22;24237;50.106;20.014;2023-03-01T03:43:45;0.10;99.90
38456;DHT22;24237;50.106;20.014;2023-03-01T03:46:11;0.10;99.90
38456;DHT22;24237;50.106;20.014;2023-03-01T03:48:39;0.10;99.90
38456;DHT22;24237;50.106;20.014;2023-03-01T03:51:06;0.20;99.90
38456;DHT22;24237;50.106;20.014;2023-03-01T03:53:32;0.20;99.90
38456;DHT22;24237;50.106;20.014;2023-03-01T03:55:58;0.20;99.90
38456;DHT22;24237;50.106;20.014;2023-03-01T03:58:25;0.20;99.90
38456;DHT22;24237;50.106;20.014;2023-03-01T04:00:53;0.10;99.90
38456;DHT22;24237;50.106;20.014;2023-03-01T04:03:21;0.00;99.90
38456;DHT22;24237;50.106;20.014;2023-03-01T04:05:48;0.00;99.90
38456;DHT22;24237;50.106;20.014;2023-03-01T04:08:17;0.00;99.90
38456;DHT22;24237;50.106;20.014;2023-03-01T04:10:46;0.00;99.90
38456;DHT22;24237;50.106;20.014;2023-03-01T04:13:18;0.00;99.90
38456;DHT22;24237;50.106;20.014;2023-03-01T04:15:46;0.00;99.90
38456;DHT22;24237;50.106;20.014;2023-03-01T04:18:13;0.00;99.90
38456;DHT22;24237;50.106;20.014;2023-03-01T04:20:39;0.00;99.90
38456;DHT22;24237;50.106;20.014;2023-03-01T04:23:07;-0.10;99.90
38456;DHT22;24237;50.106;20.014;2023-03-01T04:25:52;-0.10;99.90
38456;DHT22;24237;50.106;20.014;2023-03-01T04:28:21;-0.10;99.90
38456;DHT22;24237;50.106;20.014;2023-03-01T04:30:49;-0.10;99.90
38456;DHT22;24237;50.106;20.014;2023-03-01T04:33:15;-0.10;99.90
38456;DHT22;24237;50.106;20.014;2023-03-01T04:35:40;-0.10;99.90
38456;DHT22;24237;50.106;20.014;2023-03-01T04:38:06;-0.10;99.90
38456;DHT22;24237;50.106;20.014;2023-03-01T04:40:32;-0.10;99.90
38456;DHT22;24237;50.106;20.014;2023-03-01T04:42:58;-0.10;99.90
38456;DHT22;24237;50.106;20.014;2023-03-01T04:45:23;-0.10;99.90
38456;DHT22;24237;50.106;20.014;2023-03-01T04:47:49;-0.10;99.90
38456;DHT22;24237;50.106;20.014;2023-03-01T04:50:18;0.00;99.90
38456;DHT22;24237;50.106;20.014;2023-03-01T04:52:46;0.00;99.90
38456;DHT22;24237;50.106;20.014;2023-03-01T04:55:13;0.20;99.90
38456;DHT22;24237;50.106;20.014;2023-03-01T04:57:39;0.70;99.90
38456;DHT22;24237;50.106;20.014;2023-03-01T05:00:07;0.80;99.90
38456;DHT22;24237;50.106;20.014;2023-03-01T05:02:49;0.70;99.90
38456;DHT22;24237;50.106;20.014;2023-03-01T05:05:19;0.40;99.90
38456;DHT22;24237;50.106;20.014;2023-03-01T05:07:45;0.20;99.90
38456;DHT22;24237;50.106;20.014;2023-03-01T05:10:10;0.10;99.90
38456;DHT22;24237;50.106;20.014;2023-03-01T05:12:36;-0.10;99.90
38456;DHT22;24237;50.106;20.014;2023-03-01T05:15:03;0.00;99.90
38456;DHT22;24237;50.106;20.014;2023-03-01T05:17:33;0.10;99.90
38456;DHT22;24237;50.106;20.014;2023-03-01T05:19:59;0.10;99.90
38456;DHT22;24237;50.106;20.014;2023-03-01T05:22:25;-0.10;99.90
38456;DHT22;24237;50.106;20.014;2023-03-01T05:24:51;-0.10;99.90
38456;DHT22;24237;50.106;20.014;2023-03-01T05:27:16;-0.30;99.90
38456;DHT22;24237;50.106;20.014;2023-03-01T05:29:42;-0.30;99.90
38456;DHT22;24237;50.106;20.014;2023-03-01T05:32:07;-0.40;99.90
38456;DHT22;24237;50.106;20.014;2023-03-01T05:34:35;-0.30;99.90
38456;DHT22;24237;50.106;20.014;2023-03-01T05:37:02;-0.30;99.90
38456;DHT22;24237;50.106;20.014;2023-03-01T05:39:29;-0.40;99.90
38456;DHT22;24237;50.106;20.014;2023-03-01T05:41:56;-0.30;99.90
38456;DHT22;24237;50.106;20.014;2023-03-01T05:44:22;-0.30;99.90
38456;DHT22;24237;50.106;20.014;2023-03-01T05:46:49;-0.20;99.90
38456;DHT22;24237;50.106;20.014;2023-03-01T05:49:15;-0.20;99.90
38456;DHT22;24237;50.106;20.014;2023-03-01T05:51:41;-0.20;99.90
38456;DHT22;24237;50.106;20.014;2023-03-01T05:54:11;-0.20;99.90
38456;DHT22;24237;50.106;20.014;2023-03-01T05:56:36;-0.20;99.90
38456;DHT22;24237;50.106;20.014;2023-03-01T05:59:03;-0.30;99.90
38456;DHT22;24237;50.106;20.014;2023-03-01T06:01:30;-0.20;99.90
38456;DHT22;24237;50.106;20.014;2023-03-01T06:03:56;-0.20;99.90
38456;DHT22;24237;50.106;20.014;2023-03-01T06:06:22;-0.10;99.90
38456;DHT22;24237;50.106;20.014;2023-03-01T06:08:48;0.10;99.90
38456;DHT22;24237;50.106;20.014;2023-03-01T06:11:14;0.20;99.90
38456;DHT22;24237;50.106;20.014;2023-03-01T06:13:43;0.40;99.90
38456;DHT22;24237;50.106;20.014;2023-03-01T06:16:10;0.50;99.90
38456;DHT22;24237;50.106;20.014;2023-03-01T06:18:36;0.60;99.90
38456;DHT22;24237;50.106;20.014;2023-03-01T06:21:02;0.60;99.90
38456;DHT22;24237;50.106;20.014;2023-03-01T06:23:28;0.70;99.90
38456;DHT22;24237;50.106;20.014;2023-03-01T06:25:53;0.70;99.90
38456;DHT22;24237;50.106;20.014;2023-03-01T06:28:19;0.70;99.90
38456;DHT22;24237;50.106;20.014;2023-03-01T06:30:44;0.90;99.90
38456;DHT22;24237;50.106;20.014;2023-03-01T06:33:10;1.10;99.90
38456;DHT22;24237;50.106;20.014;2023-03-01T06:35:36;1.10;99.90
38456;DHT22;24237;50.106;20.014;2023-03-01T06:38:03;1.20;99.90
38456;DHT22;24237;50.106;20.014;2023-03-01T06:40:29;1.30;99.90
38456;DHT22;24237;50.106;20.014;2023-03-01T06:42:56;1.50;99.90
38456;DHT22;24237;50.106;20.014;2023-03-01T06:45:22;1.70;99.90
38456;DHT22;24237;50.106;20.014;2023-03-01T06:47:48;1.80;99.90
38456;DHT22;24237;50.106;20.014;2023-03-01T06:50:15;2.20;99.90
38456;DHT22;24237;50.106;20.014;2023-03-01T06:52:41;2.30;99.90
38456;DHT22;24237;50.106;20.014;2023-03-01T06:55:07;2.30;99.90
38456;DHT22;24237;50.106;20.014;2023-03-01T06:57:33;2.70;99.90
38456;DHT22;24237;50.106;20.014;2023-03-01T06:59:58;2.70;99.90
38456;DHT22;24237;50.106;20.014;2023-03-01T07:02:24;2.80;99.90
38456;DHT22;24237;50.106;20.014;2023-03-01T07:04:50;3.10;99.90
38456;DHT22;24237;50.106;20.014;2023-03-01T07:07:17;3.20;99.90
38456;DHT22;24237;50.106;20.014;2023-03-01T07:09:46;3.00;99.90
38456;DHT22;24237;50.106;20.014;2023-03-01T07:12:12;3.20;99.90
38456;DHT22;24237;50.106;20.014;2023-03-01T07:14:38;3.30;99.90
38456;DHT22;24237;50.106;20.014;2023-03-01T07:17:03;3.30;99.90
38456;DHT22;24237;50.106;20.014;2023-03-01T07:19:29;3.40;99.90
38456;DHT22;24237;50.106;20.014;2023-03-01T07:21:55;3.50;99.90
38456;DHT22;24237;50.106;20.014;2023-03-01T07:24:21;3.80;99.90
38456;DHT22;24237;50.106;20.014;2023-03-01T07:26:50;3.90;99.90
38456;DHT22;24237;50.106;20.014;2023-03-01T07:29:17;4.30;99.90
38456;DHT22;24237;50.106;20.014;2023-03-01T07:31:42;4.30;99.90
38456;DHT22;24237;50.106;20.014;2023-03-01T07:34:08;4.30;99.90
38456;DHT22;24237;50.106;20.014;2023-03-01T07:36:34;4.40;99.90
38456;DHT22;24237;50.106;20.014;2023-03-01T07:38:59;4.60;99.90
38456;DHT22;24237;50.106;20.014;2023-03-01T07:41:27;4.50;99.90
38456;DHT22;24237;50.106;20.014;2023-03-01T07:43:53;4.70;99.90
38456;DHT22;24237;50.106;20.014;2023-03-01T07:46:19;4.70;99.90
38456;DHT22;24237;50.106;20.014;2023-03-01T07:48:44;4.50;99.90
38456;DHT22;24237;50.106;20.014;2023-03-01T07:51:10;4.40;99.90
38456;DHT22;24237;50.106;20.014;2023-03-01T07:53:36;4.70;99.90
38456;DHT22;24237;50.106;20.014;2023-03-01T07:56:09;4.60;99.90
38456;DHT22;24237;50.106;20.014;2023-03-01T07:58:37;4.40;99.90
38456;DHT22;24237;50.106;20.014;2023-03-01T08:01:07;4.40;99.90
38456;DHT22;24237;50.106;20.014;2023-03-01T08:03:34;4.80;99.90
38456;DHT22;24237;50.106;20.014;2023-03-01T08:06:01;4.60;99.90
38456;DHT22;24237;50.106;20.014;2023-03-01T08:08:27;4.60;99.90
38456;DHT22;24237;50.106;20.014;2023-03-01T08:10:55;4.70;99.90
38456;DHT22;24237;50.106;20.014;2023-03-01T08:13:21;4.60;99.90
38456;DHT22;24237;50.106;20.014;2023-03-01T08:15:50;4.90;99.90
38456;DHT22;24237;50.106;20.014;2023-03-01T08:18:17;5.00;99.90
38456;DHT22;24237;50.106;20.014;2023-03-01T08:20:43;4.90;99.90
38456;DHT22;24237;50.106;20.014;2023-03-01T08:23:09;5.10;99.90
38456;DHT22;24237;50.106;20.014;2023-03-01T08:25:34;4.80;99.90
38456;DHT22;24237;50.106;20.014;2023-03-01T08:28:00;4.80;99.90
38456;DHT22;24237;50.106;20.014;2023-03-01T08:30:25;4.80;99.90
38456;DHT22;24237;50.106;20.014;2023-03-01T08:32:51;5.20;99.90
38456;DHT22;24237;50.106;20.014;2023-03-01T08:35:17;5.10;99.90
38456;DHT22;24237;50.106;20.014;2023-03-01T08:37:44;5.10;99.90
38456;DHT22;24237;50.106;20.014;2023-03-01T08:40:10;5.20;99.90
38456;DHT22;24237;50.106;20.014;2023-03-01T08:42:36;5.50;99.90
38456;DHT22;24237;50.106;20.014;2023-03-01T08:45:06;5.70;99.90
38456;DHT22;24237;50.106;20.014;2023-03-01T08:47:32;5.60;99.90
38456;DHT22;24237;50.106;20.014;2023-03-01T08:49:59;5.80;99.90
38456;DHT22;24237;50.106;20.014;2023-03-01T08:52:25;6.30;99.90
38456;DHT22;24237;50.106;20.014;2023-03-01T08:54:52;5.90;99.90
38456;DHT22;24237;50.106;20.014;2023-03-01T08:57:18;5.90;99.90
38456;DHT22;24237;50.106;20.014;2023-03-01T08:59:44;5.80;99.90
38456;DHT22;24237;50.106;20.014;2023-03-01T09:02:17;5.90;99.90
38456;DHT22;24237;50.106;20.014;2023-03-01T09:04:43;5.70;99.90
38456;DHT22;24237;50.106;20.014;2023-03-01T09:07:10;5.80;99.90
38456;DHT22;24237;50.106;20.014;2023-03-01T09:09:36;5.80;99.90
38456;DHT22;24237;50.106;20.014;2023-03-01T09:12:02;5.80;99.90
38456;DHT22;24237;50.106;20.014;2023-03-01T09:14:28;6.00;99.90
38456;DHT22;24237;50.106;20.014;2023-03-01T09:16:53;6.20;99.90
38456;DHT22;24237;50.106;20.014;2023-03-01T09:19:19;6.10;99.90
38456;DHT22;24237;50.106;20.014;2023-03-01T09:21:44;6.20;99.90
38456;DHT22;24237;50.106;20.014;2023-03-01T09:24:19;6.70;99.10
38456;DHT22;24237;50.106;20.014;2023-03-01T09:26:44;6.40;99.50
38456;DHT22;24237;50.106;20.014;2023-03-01T09:29:14;6.10;99.20
38456;DHT22;24237;50.106;20.014;2023-03-01T09:31:40;6.30;98.90
38456;DHT22;24237;50.106;20.014;2023-03-01T09:34:06;6.50;98.50
38456;DHT22;24237;50.106;20.014;2023-03-01T09:36:33;6.10;98.60
38456;DHT22;24237;50.106;20.014;2023-03-01T09:39:04;6.10;99.00
38456;DHT22;24237;50.106;20.014;2023-03-01T09:44:38;6.30;98.60
38456;DHT22;24237;50.106;20.014;2023-03-01T09:47:11;6.30;98.20
38456;DHT22;24237;50.106;20.014;2023-03-01T09:49:39;6.60;97.90
38456;DHT22;24237;50.106;20.014;2023-03-01T09:54:54;6.80;96.50
38456;DHT22;24237;50.106;20.014;2023-03-01T10:00:20;6.90;97.00
38456;DHT22;24237;50.106;20.014;2023-03-01T10:03:08;7.10;97.40
38456;DHT22;24237;50.106;20.014;2023-03-01T10:08:37;7.00;98.60
38456;DHT22;24237;50.106;20.014;2023-03-01T10:11:05;7.20;98.50
38456;DHT22;24237;50.106;20.014;2023-03-01T10:19:24;7.00;98.40
38456;DHT22;24237;50.106;20.014;2023-03-01T10:21:53;7.30;98.30
38456;DHT22;24237;50.106;20.014;2023-03-01T10:24:19;7.40;97.40
38456;DHT22;24237;50.106;20.014;2023-03-01T10:27:03;7.60;96.80
38456;DHT22;24237;50.106;20.014;2023-03-01T10:29:37;7.50;96.30
38456;DHT22;24237;50.106;20.014;2023-03-01T10:32:04;7.40;95.90
38456;DHT22;24237;50.106;20.014;2023-03-01T10:34:34;7.30;95.90
38456;DHT22;24237;50.106;20.014;2023-03-01T10:37:09;7.50;96.30
38456;DHT22;24237;50.106;20.014;2023-03-01T10:39:35;7.60;96.70
38456;DHT22;24237;50.106;20.014;2023-03-01T10:42:03;7.70;97.00
38456;DHT22;24237;50.106;20.014;2023-03-01T10:44:39;7.70;97.10
38456;DHT22;24237;50.106;20.014;2023-03-01T10:47:29;7.70;97.50
38456;DHT22;24237;50.106;20.014;2023-03-01T10:52:37;7.70;97.90
38456;DHT22;24237;50.106;20.014;2023-03-01T10:57:43;8.00;97.90
38456;DHT22;24237;50.106;20.014;2023-03-01T11:03:13;8.20;98.00
38456;DHT22;24237;50.106;20.014;2023-03-01T11:05:53;8.10;98.60
38456;DHT22;24237;50.106;20.014;2023-03-01T11:08:37;8.00;98.70
38456;DHT22;24237;50.106;20.014;2023-03-01T11:11:13;8.00;98.50
38456;DHT22;24237;50.106;20.014;2023-03-01T11:14:01;8.20;98.20
38456;DHT22;24237;50.106;20.014;2023-03-01T11:16:35;8.20;98.10
38456;DHT22;24237;50.106;20.014;2023-03-01T11:19:16;8.60;97.20
38456;DHT22;24237;50.106;20.014;2023-03-01T11:21:52;8.80;97.10
38456;DHT22;24237;50.106;20.014;2023-03-01T11:24:19;8.90;96.30
38456;DHT22;24237;50.106;20.014;2023-03-01T11:26:53;8.50;97.20
38456;DHT22;24237;50.106;20.014;2023-03-01T11:29:38;8.70;97.20
38456;DHT22;24237;50.106;20.014;2023-03-01T11:32:08;8.60;97.50
38456;DHT22;24237;50.106;20.014;2023-03-01T11:34:45;9.00;96.90
38456;DHT22;24237;50.106;20.014;2023-03-01T11:37:15;8.90;96.40
38456;DHT22;24237;50.106;20.014;2023-03-01T11:39:49;8.90;95.50
38456;DHT22;24237;50.106;20.014;2023-03-01T11:42:28;9.20;95.10
38456;DHT22;24237;50.106;20.014;2023-03-01T11:44:59;9.20;95.80
38456;DHT22;24237;50.106;20.014;2023-03-01T11:50:44;9.40;95.20
38456;DHT22;24237;50.106;20.014;2023-03-01T11:53:36;9.50;94.30
38456;DHT22;24237;50.106;20.014;2023-03-01T12:01:53;9.50;93.20
38456;DHT22;24237;50.106;20.014;2023-03-01T12:07:53;9.20;93.00
38456;DHT22;24237;50.106;20.014;2023-03-01T12:18:48;11.50;91.10
38456;DHT22;24237;50.106;20.014;2023-03-01T12:32:46;15.90;79.20
38456;DHT22;24237;50.106;20.014;2023-03-01T12:37:56;16.00;75.40
38456;DHT22;24237;50.106;20.014;2023-03-01T12:40:43;16.30;74.90
38456;DHT22;24237;50.106;20.014;2023-03-01T12:43:36;16.60;73.70
38456;DHT22;24237;50.106;20.014;2023-03-01T12:51:26;16.00;70.10
38456;DHT22;24237;50.106;20.014;2023-03-01T12:53:54;16.10;66.80
38456;DHT22;24237;50.106;20.014;2023-03-01T12:56:26;16.90;66.60
38456;DHT22;24237;50.106;20.014;2023-03-01T12:59:15;16.90;65.30
38456;DHT22;24237;50.106;20.014;2023-03-01T13:04:54;17.80;65.40
38456;DHT22;24237;50.106;20.014;2023-03-01T13:08:07;17.20;65.00
38456;DHT22;24237;50.106;20.014;2023-03-01T13:10:46;17.50;65.90
38456;DHT22;24237;50.106;20.014;2023-03-01T13:13:21;18.10;65.00
38456;DHT22;24237;50.106;20.014;2023-03-01T13:15:48;18.60;64.20
38456;DHT22;24237;50.106;20.014;2023-03-01T13:20:50;18.60;61.70
38456;DHT22;24237;50.106;20.014;2023-03-01T13:29:00;17.20;62.60
38456;DHT22;24237;50.106;20.014;2023-03-01T13:34:42;16.90;63.80
38456;DHT22;24237;50.106;20.014;2023-03-01T13:37:10;16.40;63.10
38456;DHT22;24237;50.106;20.014;2023-03-01T13:39:40;16.70;63.90
38456;DHT22;24237;50.106;20.014;2023-03-01T13:42:36;16.80;62.30
38456;DHT22;24237;50.106;20.014;2023-03-01T13:45:04;17.80;61.00
38456;DHT22;24237;50.106;20.014;2023-03-01T13:47:32;18.10;62.00
38456;DHT22;24237;50.106;20.014;2023-03-01T13:50:03;17.70;59.40
38456;DHT22;24237;50.106;20.014;2023-03-01T13:54:58;17.10;60.00
38456;DHT22;24237;50.106;20.014;2023-03-01T13:57:30;17.00;59.00
38456;DHT22;24237;50.106;20.014;2023-03-01T13:59:57;17.70;59.80
38456;DHT22;24237;50.106;20.014;2023-03-01T14:02:23;17.70;59.50
38456;DHT22;24237;50.106;20.014;2023-03-01T14:04:59;17.70;59.70
38456;DHT22;24237;50.106;20.014;2023-03-01T14:07:26;17.30;59.60
38456;DHT22;24237;50.106;20.014;2023-03-01T14:09:57;17.40;60.00
38456;DHT22;24237;50.106;20.014;2023-03-01T14:15:18;18.90;59.60
38456;DHT22;24237;50.106;20.014;2023-03-01T14:20:27;17.90;58.00
38456;DHT22;24237;50.106;20.014;2023-03-01T14:22:56;18.50;58.00
38456;DHT22;24237;50.106;20.014;2023-03-01T14:25:29;18.70;56.80
38456;DHT22;24237;50.106;20.014;2023-03-01T14:30:30;17.90;56.60
38456;DHT22;24237;50.106;20.014;2023-03-01T14:32:59;17.30;57.50
38456;DHT22;24237;50.106;20.014;2023-03-01T14:35:35;17.40;57.30
38456;DHT22;24237;50.106;20.014;2023-03-01T14:38:02;17.00;57.90
38456;DHT22;24237;50.106;20.014;2023-03-01T14:40:34;16.90;58.60
38456;DHT22;24237;50.106;20.014;2023-03-01T14:43:08;16.90;59.50
38456;DHT22;24237;50.106;20.014;2023-03-01T14:45:35;16.50;59.00
38456;DHT22;24237;50.106;20.014;2023-03-01T14:48:02;16.30;58.60
38456;DHT22;24237;50.106;20.014;2023-03-01T14:50:41;16.50;58.40
38456;DHT22;24237;50.106;20.014;2023-03-01T14:53:18;16.30;58.60
38456;DHT22;24237;50.106;20.014;2023-03-01T14:55:55;16.50;58.70
38456;DHT22;24237;50.106;20.014;2023-03-01T14:58:24;16.70;58.60
38456;DHT22;24237;50.106;20.014;2023-03-01T15:00:59;16.80;58.70
38456;DHT22;24237;50.106;20.014;2023-03-01T15:03:35;17.30;57.60
38456;DHT22;24237;50.106;20.014;2023-03-01T15:06:05;16.50;58.80
38456;DHT22;24237;50.106;20.014;2023-03-01T15:08:35;16.30;59.00
38456;DHT22;24237;50.106;20.014;2023-03-01T15:11:29;16.10;59.30
38456;DHT22;24237;50.106;20.014;2023-03-01T15:14:28;15.40;59.20
38456;DHT22;24237;50.106;20.014;2023-03-01T15:16:56;15.50;60.10
38456;DHT22;24237;50.106;20.014;2023-03-01T15:19:24;15.70;59.90
38456;DHT22;24237;50.106;20.014;2023-03-01T15:21:51;15.90;60.50
38456;DHT22;24237;50.106;20.014;2023-03-01T15:24:22;15.50;60.90
38456;DHT22;24237;50.106;20.014;2023-03-01T15:26:58;15.40;61.30
38456;DHT22;24237;50.106;20.014;2023-03-01T15:29:34;15.30;62.20
38456;DHT22;24237;50.106;20.014;2023-03-01T15:32:28;15.20;61.80
38456;DHT22;24237;50.106;20.014;2023-03-01T15:34:56;15.10;61.60
38456;DHT22;24237;50.106;20.014;2023-03-01T15:37:47;14.90;61.40
38456;DHT22;24237;50.106;20.014;2023-03-01T15:43:05;14.50;62.30
38456;DHT22;24237;50.106;20.014;2023-03-01T15:45:34;14.60;62.60
38456;DHT22;24237;50.106;20.014;2023-03-01T15:48:24;14.20;62.30
38456;DHT22;24237;50.106;20.014;2023-03-01T15:50:58;14.00;62.60
38456;DHT22;24237;50.106;20.014;2023-03-01T15:53:24;13.80;63.20
38456;DHT22;24237;50.106;20.014;2023-03-01T15:55:52;13.50;63.50
38456;DHT22;24237;50.106;20.014;2023-03-01T15:58:20;13.20;63.30
38456;DHT22;24237;50.106;20.014;2023-03-01T16:00:50;12.60;64.10
38456;DHT22;24237;50.106;20.014;2023-03-01T16:03:24;12.10;64.60
38456;DHT22;24237;50.106;20.014;2023-03-01T16:05:52;11.50;65.30
38456;DHT22;24237;50.106;20.014;2023-03-01T16:08:19;10.70;66.30
38456;DHT22;24237;50.106;20.014;2023-03-01T16:10:46;10.10;67.20
38456;DHT22;24237;50.106;20.014;2023-03-01T16:13:13;9.50;68.50
38456;DHT22;24237;50.106;20.014;2023-03-01T16:15:39;9.20;69.40
38456;DHT22;24237;50.106;20.014;2023-03-01T16:18:06;8.80;70.80
38456;DHT22;24237;50.106;20.014;2023-03-01T16:20:33;8.50;71.30
38456;DHT22;24237;50.106;20.014;2023-03-01T16:23:00;8.20;71.90
38456;DHT22;24237;50.106;20.014;2023-03-01T16:25:27;7.90;72.20
38456;DHT22;24237;50.106;20.014;2023-03-01T16:27:52;7.70;72.90
38456;DHT22;24237;50.106;20.014;2023-03-01T16:30:20;7.60;73.70
38456;DHT22;24237;50.106;20.014;2023-03-01T16:32:47;7.30;74.30
38456;DHT22;24237;50.106;20.014;2023-03-01T16:35:16;7.40;74.50
38456;DHT22;24237;50.106;20.014;2023-03-01T16:37:42;7.10;75.50
38456;DHT22;24237;50.106;20.014;2023-03-01T16:42:43;6.70;76.30
38456;DHT22;24237;50.106;20.014;2023-03-01T16:45:09;6.50;77.10
38456;DHT22;24237;50.106;20.014;2023-03-01T16:47:35;6.40;78.00
38456;DHT22;24237;50.106;20.014;2023-03-01T16:50:01;6.40;78.50
38456;DHT22;24237;50.106;20.014;2023-03-01T16:52:27;6.30;79.00
38456;DHT22;24237;50.106;20.014;2023-03-01T16:54:53;6.10;79.70
38456;DHT22;24237;50.106;20.014;2023-03-01T16:57:18;6.00;80.60
38456;DHT22;24237;50.106;20.014;2023-03-01T16:59:44;6.00;81.50
38456;DHT22;24237;50.106;20.014;2023-03-01T17:02:11;5.90;82.10
38456;DHT22;24237;50.106;20.014;2023-03-01T17:04:39;5.90;82.90
38456;DHT22;24237;50.106;20.014;2023-03-01T17:07:05;5.80;83.60
38456;DHT22;24237;50.106;20.014;2023-03-01T17:09:34;5.70;84.30
38456;DHT22;24237;50.106;20.014;2023-03-01T17:12:00;5.70;84.90
38456;DHT22;24237;50.106;20.014;2023-03-01T17:14:26;5.60;85.20
38456;DHT22;24237;50.106;20.014;2023-03-01T17:16:52;5.60;85.80
38456;DHT22;24237;50.106;20.014;2023-03-01T17:19:18;5.50;86.50
38456;DHT22;24237;50.106;20.014;2023-03-01T17:21:44;5.40;87.70
38456;DHT22;24237;50.106;20.014;2023-03-01T17:24:11;5.30;89.20
38456;DHT22;24237;50.106;20.014;2023-03-01T17:26:37;5.30;90.10
38456;DHT22;24237;50.106;20.014;2023-03-01T17:29:03;5.20;90.80
38456;DHT22;24237;50.106;20.014;2023-03-01T17:31:30;5.20;91.50